Houston, TX

5:55 AM CDT on September 03, 2015 (GMT -0500)
Copper Village | | Change Station
CLOSE
Current Station
Personal Weather Station
Location: Houston, TX
Elevation: 137 ft
Nearby Weather Stations

Elev 137 ft 29.91 °N, 95.66 °W | Updated 17 seconds ago

Partly Cloudy
Partly Cloudy
74.2 °F
Feels Like 71 °F
N
0.0
Wind Variable Wind from ENE
Gusts 0.0 mph

Today
High -- | Low -- °F
--% Chance of Precip.
Yesterday
High -- | Low -- °F
Precip. -- in
7:00 AM 7:42 PM
Waning Gibbous, 71% visible
Pressure 29.94 in
Visibility 1.2 miles
Clouds Overcast 200 ft
Heat Index 71 °F
Dew Point 73 °F
Humidity 95%
Rainfall 0.00 in
Snow Depth Not available.
UV 0.0 out of 12
Pollen 5.70 out of 12
Air Quality Not available.
Flu Activity Not available.
METAR KDWH 031053Z VRB03KT 1 1/4SM BR OVC002 23/23 A2995 RMK AO2 SLP138 T02330228
Pressure 29.94 in
Visibility 1.2 miles
Clouds Overcast 200 ft
Heat Index 71 °F
Dew Point 73 °F
Humidity 95%
Rainfall 0.00 in
Snow Depth Not available.
UV 0.0 out of 12
Pollen 5.70 out of 12
Air Quality Not available.
Flu Activity Not available.
METAR KDWH 031053Z VRB03KT 1 1/4SM BR OVC002 23/23 A2995 RMK AO2 SLP138 T02330228

10-Day Weather Forecast

×

Almanac

Astronomy

Sep. 03, 2015 Rise Set
Actual Time
Civil Twilight
Nautical Twilight
Astronomical Twilight
Moon
Length of Visible Light
Length of Day
Tomorrow will be .
, % of the Moon is Illuminated

Today's Extremes

State Highs State Lows

Community

WunderPhotos

Upload Photos

1,851,933 photos uploaded!

WunderBlogs® & News

Nearby

Air Quality

  Air Quality AQ Index Pollutant
Not available.

Snow Depth

Station Depth Elevation

Earthquake Activity

City Distance Mag. Time & Date
Minimum magnitude displayed is 2.5.

Coastal Water Temperatures

Place Temperature

Stations

Nearby Weather Stations

Station Location Temp. Windchill Dew Point Humidity Wind Precip. Elev Updated Type